DAH6198 LEPA-DABT
Flight info
| Callsign | DAH6198 |
|---|---|
| Flight time | 0h 57m |
| Altitude | 33000 |
| Route | PTC DCT BJA |
| Aircraft | B738/M-SDE2E3FGHIRWXY/LB1 |
Departure
| Time | 2026-04-30 21:54 |
|---|---|
| Airport | Palma de Mallorca Airport (LEPA) |
Arrival
| Time | 2026-04-30 22:51 |
|---|---|
| Airport | Batna Mostefa Ben Boulaid Airport (DABT) |
| Time | Latitude | Longitude | Altitude | Speed | Heading |
|---|---|---|---|---|---|
| 2026-04-30 21:30 | 39.54841 | 2.73425 | 37 ft | 0 kts | 332° |
| 2026-04-30 21:45 | 39.54840 | 2.73425 | 37 ft | 0 kts | 332° |
| 2026-04-30 21:46 | 39.54830 | 2.73432 | 36 ft | 2 kts | 336° |
| 2026-04-30 21:46 | 39.54815 | 2.73440 | 36 ft | 2 kts | 340° |
| 2026-04-30 21:46 | 39.54799 | 2.73446 | 36 ft | 2 kts | 350° |
| 2026-04-30 21:46 | 39.54783 | 2.73447 | 37 ft | 2 kts | 21° |
| 2026-04-30 21:47 | 39.54774 | 2.73432 | 34 ft | 1 kts | 114° |
| 2026-04-30 21:47 | 39.54776 | 2.73429 | 34 ft | 0 kts | 122° |
| 2026-04-30 21:47 | 39.54775 | 2.73429 | 34 ft | 0 kts | 122° |
| 2026-04-30 21:49 | 39.54772 | 2.73434 | 34 ft | 5 kts | 129° |
| 2026-04-30 21:49 | 39.54715 | 2.73483 | 37 ft | 11 kts | 151° |
| 2026-04-30 21:49 | 39.54649 | 2.73535 | 35 ft | 11 kts | 146° |
| 2026-04-30 21:49 | 39.54610 | 2.73615 | 37 ft | 11 kts | 124° |
| 2026-04-30 21:50 | 39.54548 | 2.73616 | 37 ft | 10 kts | 226° |
| 2026-04-30 21:50 | 39.54510 | 2.73538 | 37 ft | 10 kts | 238° |
| 2026-04-30 21:50 | 39.54469 | 2.73453 | 37 ft | 15 kts | 238° |
| 2026-04-30 21:50 | 39.54393 | 2.73291 | 37 ft | 25 kts | 238° |
| 2026-04-30 21:51 | 39.54303 | 2.73102 | 37 ft | 24 kts | 240° |
| 2026-04-30 21:51 | 39.54219 | 2.72934 | 37 ft | 19 kts | 218° |
| 2026-04-30 21:51 | 39.54151 | 2.72987 | 37 ft | 13 kts | 95° |
| 2026-04-30 21:51 | 39.54152 | 2.73014 | 37 ft | 0 kts | 86° |
| 2026-04-30 21:52 | 39.54152 | 2.73015 | 37 ft | 1 kts | 86° |
| 2026-04-30 21:52 | 39.54152 | 2.73090 | 37 ft | 14 kts | 90° |
| 2026-04-30 21:52 | 39.54154 | 2.73214 | 37 ft | 14 kts | 78° |
| 2026-04-30 21:53 | 39.54237 | 2.73401 | 37 ft | 53 kts | 59° |
| 2026-04-30 21:53 | 39.54555 | 2.74073 | 37 ft | 120 kts | 58° |
| 2026-04-30 21:53 | 39.55091 | 2.75208 | 65 ft | 171 kts | 59° |
| 2026-04-30 21:53 | 39.55747 | 2.76569 | 595 ft | 185 kts | 58° |
| 2026-04-30 21:54 | 39.56439 | 2.77985 | 1452 ft | 183 kts | 59° |
| 2026-04-30 21:54 | 39.57068 | 2.79335 | 2481 ft | 173 kts | 59° |
| 2026-04-30 21:54 | 39.57726 | 2.80756 | 2853 ft | 198 kts | 59° |
| 2026-04-30 21:54 | 39.58473 | 2.82375 | 3059 ft | 220 kts | 59° |
| 2026-04-30 21:55 | 39.59294 | 2.84143 | 3366 ft | 236 kts | 59° |
| 2026-04-30 21:55 | 39.60186 | 2.86054 | 3675 ft | 256 kts | 59° |
| 2026-04-30 21:55 | 39.61122 | 2.88054 | 4406 ft | 261 kts | 58° |
| 2026-04-30 21:55 | 39.62070 | 2.90079 | 5179 ft | 266 kts | 58° |
| 2026-04-30 21:56 | 39.63025 | 2.92159 | 5913 ft | 270 kts | 58° |
| 2026-04-30 21:56 | 39.63967 | 2.94244 | 6648 ft | 275 kts | 58° |
| 2026-04-30 21:56 | 39.64949 | 2.96417 | 7287 ft | 282 kts | 58° |
| 2026-04-30 21:56 | 39.65949 | 2.98631 | 7954 ft | 287 kts | 58° |
| 2026-04-30 21:57 | 39.66899 | 3.00936 | 8635 ft | 293 kts | 71° |
| 2026-04-30 21:57 | 39.67027 | 3.03564 | 9339 ft | 297 kts | 104° |
| 2026-04-30 21:57 | 39.66145 | 3.05966 | 10035 ft | 298 kts | 130° |
| 2026-04-30 21:57 | 39.64618 | 3.07815 | 10486 ft | 309 kts | 146° |
| 2026-04-30 21:58 | 39.62764 | 3.09409 | 10673 ft | 329 kts | 150° |
| 2026-04-30 21:58 | 39.60773 | 3.10983 | 11138 ft | 339 kts | 151° |
| 2026-04-30 21:58 | 39.58771 | 3.12559 | 11799 ft | 343 kts | 151° |
| 2026-04-30 21:58 | 39.56736 | 3.14184 | 12505 ft | 346 kts | 150° |
| 2026-04-30 21:59 | 39.54685 | 3.15846 | 13203 ft | 350 kts | 150° |
| 2026-04-30 21:59 | 39.52615 | 3.17538 | 13883 ft | 354 kts | 150° |
| 2026-04-30 21:59 | 39.50528 | 3.19254 | 14085 ft | 355 kts | 150° |
| 2026-04-30 22:00 | 39.46330 | 3.22712 | 14619 ft | 362 kts | 150° |
| 2026-04-30 22:00 | 39.42099 | 3.26163 | 16133 ft | 363 kts | 152° |
| 2026-04-30 22:00 | 39.39888 | 3.27789 | 16783 ft | 367 kts | 154° |
| 2026-04-30 22:01 | 39.37634 | 3.29362 | 17463 ft | 370 kts | 154° |
| 2026-04-30 22:01 | 39.35346 | 3.30934 | 18130 ft | 374 kts | 154° |
| 2026-04-30 22:01 | 39.33037 | 3.32517 | 18742 ft | 378 kts | 154° |
| 2026-04-30 22:01 | 39.30712 | 3.34119 | 19336 ft | 380 kts | 154° |
| 2026-04-30 22:02 | 39.28370 | 3.35738 | 19925 ft | 383 kts | 154° |
| 2026-04-30 22:02 | 39.26019 | 3.37369 | 20499 ft | 386 kts | 154° |
| 2026-04-30 22:02 | 39.23643 | 3.39020 | 21072 ft | 389 kts | 154° |
| 2026-04-30 22:02 | 39.21288 | 3.40658 | 21637 ft | 392 kts | 154° |
| 2026-04-30 22:03 | 39.18880 | 3.42334 | 22190 ft | 395 kts | 154° |
| 2026-04-30 22:03 | 39.16455 | 3.44021 | 22733 ft | 398 kts | 155° |
| 2026-04-30 22:03 | 39.14010 | 3.45721 | 23279 ft | 401 kts | 155° |
| 2026-04-30 22:03 | 39.11548 | 3.47431 | 23784 ft | 404 kts | 155° |
| 2026-04-30 22:04 | 39.09069 | 3.49152 | 24205 ft | 407 kts | 155° |
| 2026-04-30 22:04 | 39.06565 | 3.50888 | 24620 ft | 410 kts | 155° |
| 2026-04-30 22:04 | 39.01537 | 3.54371 | 25427 ft | 416 kts | 155° |
| 2026-04-30 22:05 | 38.98973 | 3.56146 | 25825 ft | 420 kts | 155° |
| 2026-04-30 22:05 | 38.96393 | 3.57929 | 26216 ft | 423 kts | 155° |
| 2026-04-30 22:05 | 38.93795 | 3.59723 | 26597 ft | 426 kts | 155° |
| 2026-04-30 22:05 | 38.91174 | 3.61532 | 26976 ft | 429 kts | 155° |
| 2026-04-30 22:06 | 38.88535 | 3.63353 | 27351 ft | 432 kts | 155° |
| 2026-04-30 22:06 | 38.83204 | 3.67024 | 28086 ft | 437 kts | 155° |
| 2026-04-30 22:06 | 38.80522 | 3.68870 | 28560 ft | 437 kts | 155° |
| 2026-04-30 22:07 | 38.77851 | 3.70707 | 29114 ft | 435 kts | 155° |
| 2026-04-30 22:07 | 38.75220 | 3.72515 | 29606 ft | 434 kts | 155° |
| 2026-04-30 22:07 | 38.72554 | 3.74345 | 30054 ft | 435 kts | 156° |
| 2026-04-30 22:07 | 38.69888 | 3.76173 | 30447 ft | 435 kts | 156° |
| 2026-04-30 22:08 | 38.67231 | 3.77993 | 30902 ft | 432 kts | 156° |
| 2026-04-30 22:08 | 38.64584 | 3.79805 | 31388 ft | 429 kts | 156° |
| 2026-04-30 22:08 | 38.61964 | 3.81598 | 31853 ft | 427 kts | 157° |
| 2026-04-30 22:08 | 38.59349 | 3.83385 | 32260 ft | 425 kts | 157° |
| 2026-04-30 22:09 | 38.56743 | 3.85164 | 32670 ft | 424 kts | 157° |
| 2026-04-30 22:09 | 38.54154 | 3.86930 | 33073 ft | 422 kts | 158° |
| 2026-04-30 22:09 | 38.48986 | 3.90447 | 33097 ft | 422 kts | 158° |
| 2026-04-30 22:10 | 38.43819 | 3.93962 | 33110 ft | 420 kts | 158° |
| 2026-04-30 22:10 | 38.39533 | 3.96871 | 33103 ft | 420 kts | 158° |
| 2026-04-30 22:11 | 38.31804 | 4.02109 | 33105 ft | 420 kts | 158° |
| 2026-04-30 22:12 | 38.25814 | 4.06160 | 33106 ft | 420 kts | 158° |
| 2026-04-30 22:12 | 38.20654 | 4.09644 | 33100 ft | 420 kts | 158° |
| 2026-04-30 22:13 | 38.15491 | 4.13123 | 33100 ft | 420 kts | 158° |
| 2026-04-30 22:13 | 38.10352 | 4.16582 | 33103 ft | 421 kts | 158° |
| 2026-04-30 22:14 | 38.05174 | 4.20061 | 33099 ft | 422 kts | 158° |
| 2026-04-30 22:14 | 37.99981 | 4.23544 | 33095 ft | 422 kts | 158° |
| 2026-04-30 22:15 | 37.94780 | 4.27027 | 33093 ft | 423 kts | 158° |
| 2026-04-30 22:15 | 37.89574 | 4.30509 | 33105 ft | 423 kts | 158° |
| 2026-04-30 22:16 | 37.84395 | 4.33966 | 33094 ft | 424 kts | 157° |
| 2026-04-30 22:17 | 37.73975 | 4.40906 | 33087 ft | 423 kts | 158° |
| 2026-04-30 22:17 | 37.66200 | 4.46069 | 33089 ft | 422 kts | 158° |
| 2026-04-30 22:18 | 37.58405 | 4.51234 | 33087 ft | 422 kts | 158° |
| 2026-04-30 22:19 | 37.50612 | 4.56385 | 33085 ft | 421 kts | 158° |
| 2026-04-30 22:20 | 37.42857 | 4.61498 | 33085 ft | 421 kts | 158° |
| 2026-04-30 22:20 | 37.35066 | 4.66623 | 33082 ft | 421 kts | 158° |
| 2026-04-30 22:21 | 37.29866 | 4.70038 | 33084 ft | 422 kts | 158° |
| 2026-04-30 22:21 | 37.24665 | 4.73447 | 33078 ft | 422 kts | 158° |
| 2026-04-30 22:22 | 37.19454 | 4.76857 | 33086 ft | 422 kts | 158° |
| 2026-04-30 22:22 | 37.14278 | 4.80239 | 33084 ft | 423 kts | 158° |
| 2026-04-30 22:23 | 37.09059 | 4.83645 | 33086 ft | 423 kts | 158° |
| 2026-04-30 22:23 | 37.03839 | 4.87045 | 33080 ft | 423 kts | 158° |
| 2026-04-30 22:24 | 36.98614 | 4.90444 | 33085 ft | 423 kts | 158° |
| 2026-04-30 22:24 | 36.93426 | 4.93814 | 33080 ft | 423 kts | 158° |
| 2026-04-30 22:25 | 36.88195 | 4.97206 | 33081 ft | 423 kts | 158° |
| 2026-04-30 22:25 | 36.82968 | 5.00591 | 33078 ft | 423 kts | 158° |
| 2026-04-30 22:26 | 36.75146 | 5.05645 | 32622 ft | 427 kts | 158° |
| 2026-04-30 22:26 | 36.72551 | 5.07446 | 32093 ft | 430 kts | 152° |
| 2026-04-30 22:27 | 36.70162 | 5.09735 | 31551 ft | 437 kts | 141° |
| 2026-04-30 22:27 | 36.68063 | 5.12495 | 31105 ft | 438 kts | 136° |
| 2026-04-30 22:27 | 36.64003 | 5.18118 | 30203 ft | 435 kts | 136° |
| 2026-04-30 22:28 | 36.59953 | 5.23697 | 29168 ft | 432 kts | 136° |
| 2026-04-30 22:28 | 36.57936 | 5.26453 | 28677 ft | 430 kts | 136° |
| 2026-04-30 22:29 | 36.51966 | 5.34560 | 27281 ft | 422 kts | 136° |
| 2026-04-30 22:29 | 36.49984 | 5.37242 | 26837 ft | 420 kts | 136° |
| 2026-04-30 22:30 | 36.42135 | 5.47845 | 25046 ft | 414 kts | 136° |
| 2026-04-30 22:31 | 36.36326 | 5.55671 | 23645 ft | 412 kts | 136° |
| 2026-04-30 22:32 | 36.30543 | 5.63446 | 22146 ft | 405 kts | 135° |
| 2026-04-30 22:32 | 36.26747 | 5.68540 | 21217 ft | 399 kts | 135° |
| 2026-04-30 22:33 | 36.21166 | 5.76014 | 19857 ft | 392 kts | 135° |
| 2026-04-30 22:33 | 36.17479 | 5.80941 | 18968 ft | 388 kts | 135° |
| 2026-04-30 22:34 | 36.12015 | 5.88231 | 17538 ft | 382 kts | 134° |
| 2026-04-30 22:35 | 36.08425 | 5.93013 | 16640 ft | 376 kts | 134° |
| 2026-04-30 22:36 | 36.01429 | 6.02310 | 14933 ft | 366 kts | 134° |
| 2026-04-30 22:36 | 35.99703 | 6.04601 | 14521 ft | 363 kts | 134° |
| 2026-04-30 22:37 | 35.94574 | 6.11395 | 13202 ft | 354 kts | 134° |
| 2026-04-30 22:37 | 35.92918 | 6.13587 | 12769 ft | 344 kts | 134° |
| 2026-04-30 22:37 | 35.89763 | 6.17760 | 12008 ft | 330 kts | 134° |
| 2026-04-30 22:38 | 35.86634 | 6.21889 | 11242 ft | 329 kts | 134° |
| 2026-04-30 22:38 | 35.84045 | 6.25304 | 10599 ft | 327 kts | 134° |
| 2026-04-30 22:39 | 35.81999 | 6.28001 | 10354 ft | 312 kts | 134° |
| 2026-04-30 22:39 | 35.77420 | 6.32846 | 9508 ft | 283 kts | 147° |
| 2026-04-30 22:40 | 35.71732 | 6.33337 | 7983 ft | 277 kts | 168° |
| 2026-04-30 22:41 | 35.69099 | 6.37916 | 7947 ft | 277 kts | 81° |
| 2026-04-30 22:41 | 35.70704 | 6.43094 | 7753 ft | 280 kts | 55° |
| 2026-04-30 22:42 | 35.75752 | 6.50028 | 7516 ft | 245 kts | 47° |
| 2026-04-30 22:43 | 35.77550 | 6.52447 | 7260 ft | 218 kts | 52° |
| 2026-04-30 22:43 | 35.79711 | 6.55335 | 6962 ft | 188 kts | 21° |
| 2026-04-30 22:44 | 35.82227 | 6.56091 | 6925 ft | 186 kts | 10° |
| 2026-04-30 22:45 | 35.86552 | 6.55033 | 6439 ft | 173 kts | 314° |
| 2026-04-30 22:45 | 35.87524 | 6.52198 | 5707 ft | 154 kts | 245° |
| 2026-04-30 22:46 | 35.86237 | 6.50166 | 5652 ft | 182 kts | 233° |
| 2026-04-30 22:47 | 35.83848 | 6.46038 | 5056 ft | 136 kts | 233° |
| 2026-04-30 22:47 | 35.82727 | 6.44067 | 5002 ft | 143 kts | 233° |
| 2026-04-30 22:48 | 35.81597 | 6.42099 | 4648 ft | 139 kts | 233° |
| 2026-04-30 22:49 | 35.79912 | 6.39167 | 4094 ft | 139 kts | 233° |
| 2026-04-30 22:49 | 35.78209 | 6.36200 | 3507 ft | 142 kts | 234° |
| 2026-04-30 22:50 | 35.75969 | 6.32291 | 2758 ft | 137 kts | 236° |
| 2026-04-30 22:51 | 35.75082 | 6.30753 | 2699 ft | 70 kts | 233° |
| 2026-04-30 22:51 | 35.74831 | 6.30308 | 2698 ft | 22 kts | 235° |
| 2026-04-30 22:52 | 35.74744 | 6.30158 | 2697 ft | 21 kts | 234° |
| 2026-04-30 22:52 | 35.74829 | 6.29943 | 2696 ft | 20 kts | 26° |
| 2026-04-30 22:53 | 35.74990 | 6.30206 | 2696 ft | 19 kts | 55° |
| 2026-04-30 22:53 | 35.75123 | 6.30440 | 2697 ft | 18 kts | 54° |
| 2026-04-30 22:53 | 35.75182 | 6.30541 | 2696 ft | 17 kts | 54° |
| 2026-04-30 22:54 | 35.75325 | 6.30788 | 2697 ft | 18 kts | 54° |
| 2026-04-30 22:55 | 35.75575 | 6.31067 | 2696 ft | 16 kts | 8° |
| 2026-04-30 22:55 | 35.75695 | 6.31010 | 2696 ft | 9 kts | 278° |